Time;durP1;ratioP1;P1;durP2;ratioP2;P2;SDS_P1;SDS_P2;PMS_P1;PMS_P2;Temp;Humidity;BMP_temperature;BMP_pressure;BME280_temperature;BME280_humidity;BME280_pressure;Samples;Min_cycle;Max_cycle;Signal;HPM_P1;HPM_P2
2023/12/01 00:02:24;;;;;;;11.07;5.35;;;;;;;-144.57;100.00;62443.72;5016234;28;20050;-53
2023/12/01 00:04:50;;;;;;;9.50;5.63;;;;;;;-144.57;100.00;62443.72;5015753;28;20038;-58
2023/12/01 00:07:16;;;;;;;9.80;5.18;;;;;;;-144.57;100.00;62443.72;5015345;28;20041;-57
2023/12/01 00:09:42;;;;;;;11.63;5.72;;;;;;;-144.57;100.00;62443.72;5014224;28;20041;-58
2023/12/01 00:12:08;;;;;;;11.40;5.70;;;;;;;-144.57;100.00;62443.72;5015617;28;20111;-57
2023/12/01 00:14:34;;;;;;;7.95;5.43;;;;;;;-144.57;100.00;62443.72;5015554;28;20527;-58
2023/12/01 00:17:00;;;;;;;9.77;5.72;;;;;;;-144.57;100.00;62443.72;5012894;28;20507;-57
2023/12/01 00:19:25;;;;;;;10.27;5.15;;;;;;;-144.57;100.00;62443.72;5012756;28;20053;-58
2023/12/01 00:21:51;;;;;;;8.73;5.35;;;;;;;-144.57;100.00;62443.72;5027910;28;20041;-58
2023/12/01 00:24:17;;;;;;;9.43;5.38;;;;;;;-144.57;100.00;62443.72;5012920;28;20046;-58
2023/12/01 00:26:44;;;;;;;9.98;5.72;;;;;;;-144.57;100.00;62443.72;5012556;28;20099;-59
2023/12/01 00:29:10;;;;;;;10.80;5.28;;;;;;;-144.57;100.00;62443.72;5011617;28;20049;-60
2023/12/01 00:31:35;;;;;;;9.82;5.28;;;;;;;-144.57;100.00;62443.72;5010706;28;20050;-60
2023/12/01 00:34:01;;;;;;;10.88;5.53;;;;;;;-144.57;100.00;62443.72;5012943;28;20407;-58
2023/12/01 00:36:27;;;;;;;10.27;5.65;;;;;;;-144.57;100.00;62443.72;5012434;28;20079;-60
2023/12/01 00:38:52;;;;;;;10.13;5.53;;;;;;;-144.57;100.00;62443.72;5012339;28;20077;-57
2023/12/01 00:41:19;;;;;;;9.35;5.18;;;;;;;-144.57;100.00;62443.72;5011205;28;20042;-58
2023/12/01 00:43:44;;;;;;;10.50;5.80;;;;;;;-144.57;100.00;62443.72;5027699;28;20046;-58
2023/12/01 00:46:10;;;;;;;11.57;5.90;;;;;;;-144.57;100.00;62443.72;5027646;28;20065;-58
2023/12/01 00:48:36;;;;;;;9.75;4.90;;;;;;;-144.57;100.00;62443.72;5012597;28;20038;-57
2023/12/01 00:51:02;;;;;;;9.43;5.32;;;;;;;-144.57;100.00;62443.72;5012135;28;20092;-60
2023/12/01 00:53:29;;;;;;;9.85;4.90;;;;;;;-144.57;100.00;62443.72;5027409;28;20537;-59
2023/12/01 00:55:54;;;;;;;11.27;5.13;;;;;;;-144.57;100.00;62443.72;5027355;28;20532;-59
2023/12/01 00:58:20;;;;;;;7.88;5.35;;;;;;;-144.57;100.00;62443.72;5016998;28;20072;-60
2023/12/01 01:00:46;;;;;;;8.75;4.70;;;;;;;-144.57;100.00;62443.72;5044614;28;20050;-62
2023/12/01 01:03:12;;;;;;;11.27;5.25;;;;;;;-144.57;100.00;62443.72;5010818;28;20046;-57
2023/12/01 01:05:38;;;;;;;8.55;4.55;;;;;;;-144.57;100.00;62443.72;5032297;28;20041;-59
2023/12/01 01:08:04;;;;;;;9.80;5.53;;;;;;;-144.57;100.00;62443.72;5031416;28;20136;-57
2023/12/01 01:10:29;;;;;;;10.68;4.80;;;;;;;-144.57;100.00;62443.72;5030467;28;20037;-59
2023/12/01 01:12:55;;;;;;;9.18;4.72;;;;;;;-144.57;100.00;62443.72;5030266;28;20057;-59
2023/12/01 01:15:21;;;;;;;8.07;4.70;;;;;;;-144.57;100.00;62443.72;5016409;28;20133;-60
2023/12/01 01:17:47;;;;;;;8.30;4.57;;;;;;;-144.57;100.00;62443.72;5012013;28;20407;-58
2023/12/01 01:20:12;;;;;;;8.50;5.20;;;;;;;-144.57;100.00;62443.72;5006553;28;20050;-57
2023/12/01 01:22:38;;;;;;;9.95;5.10;;;;;;;-144.57;100.00;62443.72;4992270;28;20532;-59
2023/12/01 01:25:04;;;;;;;11.68;5.30;;;;;;;-144.57;100.00;62443.72;4974631;28;20045;-61
2023/12/01 01:27:31;;;;;;;9.35;4.95;;;;;;;-144.57;100.00;62443.72;4992585;28;20380;-59
2023/12/01 01:29:58;;;;;;;11.00;5.30;;;;;;;-144.57;100.00;62443.72;5026061;28;20057;-59
2023/12/01 01:32:24;;;;;;;9.18;5.25;;;;;;;-144.57;100.00;62443.72;5024957;28;20052;-58
2023/12/01 01:34:50;;;;;;;8.77;5.15;;;;;;;-144.57;100.00;62443.72;5013903;28;20044;-59
2023/12/01 01:37:16;;;;;;;9.32;5.40;;;;;;;-144.57;100.00;62443.72;5013774;28;20052;-57
2023/12/01 01:39:42;;;;;;;11.00;5.35;;;;;;;-144.57;100.00;62443.72;5016021;28;20569;-58
2023/12/01 01:42:08;;;;;;;9.90;5.35;;;;;;;-144.57;100.00;62443.72;5011452;28;20136;-58
2023/12/01 01:44:35;;;;;;;10.95;5.75;;;;;;;-144.57;100.00;62443.72;5010086;28;20046;-58
2023/12/01 01:47:01;;;;;;;11.25;5.43;;;;;;;-144.57;100.00;62443.72;5011629;28;20042;-58
2023/12/01 01:49:27;;;;;;;10.02;5.38;;;;;;;-144.57;100.00;62443.72;5026313;28;20077;-58
2023/12/01 01:51:54;;;;;;;9.57;5.15;;;;;;;-144.57;100.00;62443.72;5010972;28;20111;-58
2023/12/01 01:54:23;;;;;;;6.82;5.03;;;;;;;-144.57;100.00;62443.72;5011463;28;20041;-57
2023/12/01 01:56:51;;;;;;;10.43;5.07;;;;;;;-144.57;100.00;62443.72;5011383;28;20044;-58
2023/12/01 01:59:20;;;;;;;11.07;5.18;;;;;;;-144.57;100.00;62443.72;5004710;28;20065;-58
2023/12/01 02:01:49;;;;;;;9.98;5.65;;;;;;;-144.57;100.00;62443.72;5004449;28;20042;-58
2023/12/01 02:04:16;;;;;;;12.40;5.57;;;;;;;-144.57;100.00;62443.72;4988248;28;20050;-57
2023/12/01 02:06:45;;;;;;;8.43;5.32;;;;;;;-144.57;100.00;62443.72;4989585;28;20042;-57
2023/12/01 02:09:13;;;;;;;11.27;5.63;;;;;;;-144.57;100.00;62443.72;5004687;28;20086;-58
2023/12/01 02:11:40;;;;;;;12.00;6.28;;;;;;;-144.57;100.00;62443.72;4989487;28;20143;-58
2023/12/01 02:14:06;;;;;;;8.98;5.72;;;;;;;-144.57;100.00;62443.72;4989814;28;20042;-59
2023/12/01 02:16:33;;;;;;;11.40;5.50;;;;;;;-144.57;100.00;62443.72;5016739;28;20104;-59
2023/12/01 02:18:59;;;;;;;10.18;5.30;;;;;;;-144.57;100.00;62443.72;5009889;28;20432;-57
2023/12/01 02:21:25;;;;;;;12.65;6.00;;;;;;;-144.57;100.00;62443.72;5011159;28;20041;-59
2023/12/01 02:23:55;;;;;;;9.75;5.93;;;;;;;-144.57;100.00;62443.72;5010050;28;20053;-58
2023/12/01 02:26:21;;;;;;;10.88;5.88;;;;;;;-144.57;100.00;62443.72;5026425;28;20038;-58
2023/12/01 02:28:47;;;;;;;11.07;5.82;;;;;;;-144.57;100.00;62443.72;5009726;28;20526;-56
2023/12/01 02:31:13;;;;;;;14.20;7.03;;;;;;;-144.57;100.00;62443.72;5011431;28;20041;-60
2023/12/01 02:33:38;;;;;;;11.27;6.22;;;;;;;-144.57;100.00;62443.72;5029650;28;20060;-57
2023/12/01 02:36:06;;;;;;;10.93;6.53;;;;;;;-144.57;100.00;62443.72;5028614;28;20064;-60
2023/12/01 02:38:33;;;;;;;13.10;6.03;;;;;;;-144.57;100.00;62443.72;5029645;28;20095;-59
2023/12/01 02:40:58;;;;;;;12.40;6.25;;;;;;;-144.57;100.00;62443.72;5049931;28;20456;-59
2023/12/01 02:43:24;;;;;;;13.75;6.97;;;;;;;-144.57;100.00;62443.72;5034670;28;20041;-57
2023/12/01 02:45:50;;;;;;;11.30;6.47;;;;;;;-144.57;100.00;62443.72;5049980;28;20049;-59
2023/12/01 02:48:16;;;;;;;12.45;6.82;;;;;;;-144.57;100.00;62443.72;5034613;28;20100;-58
2023/12/01 02:50:43;;;;;;;14.10;6.88;;;;;;;-144.57;100.00;62443.72;5000113;28;20071;-60
2023/12/01 02:53:09;;;;;;;14.57;7.72;;;;;;;-144.57;100.00;62443.72;5034291;28;20061;-58
2023/12/01 02:55:34;;;;;;;14.07;7.43;;;;;;;-144.57;100.00;62443.72;5049363;28;20041;-60
2023/12/01 02:58:00;;;;;;;13.73;7.47;;;;;;;-144.57;100.00;62443.72;5049538;28;20037;-57
2023/12/01 03:00:27;;;;;;;14.23;7.45;;;;;;;-144.57;100.00;62443.72;5017116;28;20061;-59
2023/12/01 03:02:53;;;;;;;14.23;7.53;;;;;;;-144.57;100.00;62443.72;5014439;28;20038;-60
2023/12/01 03:05:19;;;;;;;16.55;8.07;;;;;;;-144.57;100.00;62443.72;5013509;28;20042;-59
2023/12/01 03:07:46;;;;;;;15.20;7.47;;;;;;;-144.57;100.00;62443.72;5012916;28;20049;-58
2023/12/01 03:10:12;;;;;;;15.32;8.65;;;;;;;-144.57;100.00;62443.72;4996432;28;20045;-59
2023/12/01 03:12:39;;;;;;;16.08;8.35;;;;;;;-144.57;100.00;62443.72;5013726;28;20057;-58
2023/12/01 03:15:08;;;;;;;16.52;8.77;;;;;;;-144.57;100.00;62443.72;5014024;28;20042;-58
2023/12/01 03:17:34;;;;;;;16.35;8.52;;;;;;;-144.57;100.00;62443.72;5012514;28;20069;-59
2023/12/01 03:20:00;;;;;;;17.10;8.48;;;;;;;-144.57;100.00;62443.72;5013938;28;20460;-57
2023/12/01 03:22:26;;;;;;;16.80;8.30;;;;;;;-144.57;100.00;62443.72;5014025;28;20138;-57
2023/12/01 03:24:53;;;;;;;22.77;8.15;;;;;;;-144.57;100.00;62443.72;5013743;28;20130;-59
2023/12/01 03:27:25;;;;;;;15.48;8.10;;;;;;;-144.57;100.00;62443.72;5013138;28;20173;-59
2023/12/01 03:29:52;;;;;;;13.82;8.13;;;;;;;-144.57;100.00;62443.72;5013385;28;20069;-58
2023/12/01 03:32:21;;;;;;;18.90;9.20;;;;;;;-144.57;100.00;62443.72;5028357;28;20046;-59
2023/12/01 03:34:47;;;;;;;12.57;7.38;;;;;;;-144.57;100.00;62443.72;5028860;28;20045;-59
2023/12/01 03:37:12;;;;;;;20.48;8.88;;;;;;;-144.57;100.00;62443.72;5013485;28;20038;-58
2023/12/01 03:39:38;;;;;;;17.92;8.93;;;;;;;-144.57;100.00;62443.72;5012046;28;20084;-60
2023/12/01 03:42:04;;;;;;;16.25;8.68;;;;;;;-144.57;100.00;62443.72;5012059;28;20511;-59
2023/12/01 03:44:32;;;;;;;19.58;8.90;;;;;;;-144.57;100.00;62443.72;5012068;28;20423;-60
2023/12/01 03:46:58;;;;;;;18.13;9.00;;;;;;;-144.57;100.00;62443.72;5013026;28;20057;-57
2023/12/01 03:49:24;;;;;;;20.92;8.52;;;;;;;-144.57;100.00;62443.72;5011172;28;20068;-58
2023/12/01 03:51:52;;;;;;;15.07;8.15;;;;;;;-144.57;100.00;62443.72;5012655;28;20392;-59
2023/12/01 03:54:18;;;;;;;20.15;9.27;;;;;;;-144.57;100.00;62443.72;5011259;28;20052;-59
2023/12/01 03:56:45;;;;;;;15.65;8.23;;;;;;;-144.57;100.00;62443.72;5028131;28;20125;-59
2023/12/01 03:59:11;;;;;;;15.10;8.02;;;;;;;-144.57;100.00;62443.72;5011764;28;20042;-58
2023/12/01 04:01:40;;;;;;;16.13;8.07;;;;;;;-144.57;100.00;62443.72;4994671;28;20527;-58
2023/12/01 04:04:10;;;;;;;15.63;8.02;;;;;;;-144.57;100.00;62443.72;5028446;28;20058;-57
2023/12/01 04:06:37;;;;;;;17.73;9.10;;;;;;;-144.57;100.00;62443.72;5028425;28;20045;-58
2023/12/01 04:09:09;;;;;;;16.77;8.10;;;;;;;-144.57;100.00;62443.72;4994578;28;20305;-59
2023/12/01 04:11:37;;;;;;;19.08;8.70;;;;;;;-144.57;100.00;62443.72;5012761;28;20049;-59
2023/12/01 04:14:04;;;;;;;16.55;8.35;;;;;;;-144.57;100.00;62443.72;5028066;28;20054;-57
2023/12/01 04:16:30;;;;;;;18.73;8.60;;;;;;;-144.57;100.00;62443.72;5012915;28;20049;-59
2023/12/01 04:18:56;;;;;;;17.15;8.52;;;;;;;-144.57;100.00;62443.72;5027497;28;20096;-58
2023/12/01 04:21:22;;;;;;;18.67;9.13;;;;;;;-144.57;100.00;62443.72;5027680;28;20073;-59
2023/12/01 04:23:47;;;;;;;18.63;9.07;;;;;;;-144.57;100.00;62443.72;5027802;28;20504;-57
2023/12/01 04:26:13;;;;;;;17.55;8.73;;;;;;;-144.57;100.00;62443.72;5011099;28;20033;-60
2023/12/01 04:28:39;;;;;;;17.88;8.23;;;;;;;-144.57;100.00;62443.72;5012606;28;20077;-58
2023/12/01 04:31:05;;;;;;;19.08;8.32;;;;;;;-144.57;100.00;62443.72;5012198;28;20443;-60
2023/12/01 04:33:32;;;;;;;16.52;8.88;;;;;;;-144.57;100.00;62443.72;5027604;28;20085;-59
2023/12/01 04:35:58;;;;;;;16.92;8.50;;;;;;;-144.57;100.00;62443.72;5011218;28;20084;-57
2023/12/01 04:38:23;;;;;;;18.63;8.35;;;;;;;-144.57;100.00;62443.72;5011868;28;20408;-56
2023/12/01 04:40:50;;;;;;;17.52;8.60;;;;;;;-144.57;100.00;62443.72;5012011;28;20084;-58
2023/12/01 04:43:17;;;;;;;19.83;8.52;;;;;;;-144.57;100.00;62443.72;5011201;28;20086;-58
2023/12/01 04:45:43;;;;;;;19.98;8.68;;;;;;;-144.57;100.00;62443.72;5011979;28;20037;-56
2023/12/01 04:48:09;;;;;;;19.60;8.65;;;;;;;-144.57;100.00;62443.72;5009877;28;20049;-56
2023/12/01 04:50:39;;;;;;;17.05;8.77;;;;;;;-144.57;100.00;62443.72;5009916;28;20037;-62
2023/12/01 04:53:05;;;;;;;;;;;;;;;-144.57;100.00;62443.72;5009156;28;20121;-62
2023/12/01 04:55:31;;;;;;;19.60;8.80;;;;;;;-144.57;100.00;62443.72;5026009;28;19928;-57
2023/12/01 04:57:58;;;;;;;19.88;9.02;;;;;;;-144.57;100.00;62443.72;5011281;28;20057;-56
2023/12/01 05:00:27;;;;;;;20.90;9.55;;;;;;;-144.57;100.00;62443.72;5025145;28;20038;-58
2023/12/01 05:02:59;;;;;;;15.57;8.60;;;;;;;-144.57;100.00;62443.72;5026728;28;20053;-60
2023/12/01 05:05:29;;;;;;;19.05;9.93;;;;;;;-144.57;100.00;62443.72;5011750;28;20092;-57
2023/12/01 05:07:58;;;;;;;;;;;;;;;-144.57;100.00;62443.72;5010873;28;20038;-57
2023/12/01 05:10:26;;;;;;;18.52;7.95;;;;;;;-144.57;100.00;62443.72;5026743;28;19972;-59
2023/12/01 05:12:55;;;;;;;19.45;9.63;;;;;;;-144.57;100.00;62443.72;4994288;28;20053;-56
2023/12/01 05:15:24;;;;;;;21.23;9.00;;;;;;;-144.57;100.00;62443.72;5010736;28;20500;-59
2023/12/01 05:18:00;;;;;;;17.70;8.93;;;;;;;-144.57;100.00;62443.72;5012022;28;20046;-60
2023/12/01 05:20:27;;;;;;;20.25;9.15;;;;;;;-144.57;100.00;62443.72;5011929;28;20064;-59
2023/12/01 05:22:58;;;;;;;18.67;8.82;;;;;;;-144.57;100.00;62443.72;5011195;28;20388;-58
2023/12/01 05:25:28;;;;;;;17.45;9.35;;;;;;;-144.57;100.00;62443.72;5011540;28;20030;-60
2023/12/01 05:27:56;;;;;;;19.73;9.32;;;;;;;-144.57;100.00;62443.72;5011207;28;20034;-60
2023/12/01 05:30:26;;;;;;;18.73;9.45;;;;;;;-144.57;100.00;62443.72;5011627;28;20099;-60
2023/12/01 05:32:53;;;;;;;22.33;10.13;;;;;;;-144.57;100.00;62443.72;5009674;28;20045;-59
2023/12/01 05:35:19;;;;;;;18.38;10.05;;;;;;;-144.57;100.00;62443.72;5010480;28;20046;-60
2023/12/01 05:37:50;;;;;;;24.67;9.95;;;;;;;-144.57;100.00;62443.72;5010170;28;20041;-58
2023/12/01 05:40:20;;;;;;;19.92;9.82;;;;;;;-144.57;100.00;62443.72;4994215;28;20076;-58
2023/12/01 05:42:47;;;;;;;23.38;10.65;;;;;;;-144.57;100.00;62443.72;5010326;28;20054;-57
2023/12/01 05:45:14;;;;;;;21.98;10.88;;;;;;;-144.57;100.00;62443.72;5011429;28;20061;-58
2023/12/01 05:47:47;;;;;;;24.25;10.10;;;;;;;-144.57;100.00;62443.72;5011285;28;20133;-57
2023/12/01 05:50:15;;;;;;;17.42;9.35;;;;;;;-144.57;100.00;62443.72;5010110;28;20044;-60
2023/12/01 05:52:42;;;;;;;22.77;9.73;;;;;;;-144.57;100.00;62443.72;5011378;28;20053;-59
2023/12/01 05:55:14;;;;;;;25.10;9.77;;;;;;;-144.57;100.00;62443.72;5011139;28;20558;-59
2023/12/01 05:57:44;;;;;;;19.90;10.18;;;;;;;-144.57;100.00;62443.72;5011314;28;20057;-59
2023/12/01 06:00:12;;;;;;;20.25;9.30;;;;;;;-144.57;100.00;62443.72;5009818;28;20034;-60
2023/12/01 06:02:40;;;;;;;21.98;10.35;;;;;;;-144.57;100.00;62443.72;5011034;28;20049;-60
2023/12/01 06:05:06;;;;;;;19.88;9.85;;;;;;;-144.57;100.00;62443.72;5010051;28;20034;-57
2023/12/01 06:07:32;;;;;;;20.45;9.80;;;;;;;-144.57;100.00;62443.72;5010880;28;20042;-60
2023/12/01 06:09:58;;;;;;;18.15;9.30;;;;;;;-144.57;100.00;62443.72;5009442;28;20038;-60
2023/12/01 06:12:24;;;;;;;17.85;8.80;;;;;;;-144.57;100.00;62443.72;5009560;28;20050;-59
2023/12/01 06:14:50;;;;;;;22.80;10.73;;;;;;;-144.57;100.00;62443.72;5010755;28;20370;-59
2023/12/01 06:17:16;;;;;;;18.17;8.43;;;;;;;-144.57;100.00;62443.72;5014810;28;20049;-58
2023/12/01 06:19:42;;;;;;;21.95;9.88;;;;;;;-144.57;100.00;62443.72;5014469;28;20420;-57
2023/12/01 06:22:08;;;;;;;20.80;9.40;;;;;;;-144.57;100.00;62443.72;4996866;28;20103;-58
2023/12/01 06:24:33;;;;;;;17.40;9.40;;;;;;;-144.57;100.00;62443.72;5014466;28;20037;-58
2023/12/01 06:27:04;;;;;;;20.42;9.43;;;;;;;-144.57;100.00;62443.72;5013279;28;20049;-56
2023/12/01 06:29:30;;;;;;;15.40;8.60;;;;;;;-144.57;100.00;62443.72;5012122;28;20064;-59
2023/12/01 06:31:56;;;;;;;17.42;8.63;;;;;;;-144.57;100.00;62443.72;5014092;28;20073;-59
2023/12/01 06:34:22;;;;;;;20.30;9.70;;;;;;;-144.57;100.00;62443.72;5012832;28;20061;-58
2023/12/01 06:36:47;;;;;;;20.80;10.10;;;;;;;-144.57;100.00;62443.72;5012494;28;20088;-56
2023/12/01 06:39:13;;;;;;;22.23;9.70;;;;;;;-144.57;100.00;62443.72;5012748;28;20054;-59
2023/12/01 06:41:41;;;;;;;15.88;8.55;;;;;;;-144.57;100.00;62443.72;5013158;28;20419;-58
2023/12/01 06:44:07;;;;;;;20.40;10.55;;;;;;;-144.57;100.00;62443.72;5013503;28;20089;-59
2023/12/01 06:46:33;;;;;;;18.33;9.27;;;;;;;-144.57;100.00;62443.72;5012931;28;20041;-58
2023/12/01 06:48:59;;;;;;;15.07;8.88;;;;;;;-144.57;100.00;62443.72;5012535;28;20507;-59
2023/12/01 06:51:26;;;;;;;16.42;9.20;;;;;;;-144.57;100.00;62443.72;5013360;28;20034;-57
2023/12/01 06:53:51;;;;;;;21.83;9.98;;;;;;;-144.57;100.00;62443.72;4996520;28;20119;-56
2023/12/01 06:56:17;;;;;;;20.27;9.98;;;;;;;-144.57;100.00;62443.72;5028346;28;20492;-59
2023/12/01 06:58:43;;;;;;;21.50;9.10;;;;;;;-144.57;100.00;62443.72;4996764;28;20096;-59
2023/12/01 07:01:18;;;;;;;19.52;9.90;;;;;;;-144.57;100.00;62443.72;5011493;28;20034;-58
2023/12/01 07:03:47;;;;;;;18.48;9.38;;;;;;;-144.57;100.00;62443.72;5012755;28;20049;-58
2023/12/01 07:06:14;;;;;;;14.63;9.00;;;;;;;-144.57;100.00;62443.72;5012287;28;20499;-59
2023/12/01 07:08:40;;;;;;;17.70;9.63;;;;;;;-144.57;100.00;62443.72;5012778;28;20248;-60
2023/12/01 07:11:08;;;;;;;15.43;8.40;;;;;;;-144.57;100.00;62443.72;5013732;28;20451;-60
2023/12/01 07:13:35;;;;;;;20.02;9.70;;;;;;;-144.57;100.00;62443.72;5013863;28;20129;-59
2023/12/01 07:16:09;;;;;;;19.63;10.23;;;;;;;-144.57;100.00;62443.72;5013752;28;20038;-58
2023/12/01 07:18:38;;;;;;;17.70;8.45;;;;;;;-144.57;100.00;62443.72;5013493;28;20062;-56
2023/12/01 07:21:06;;;;;;;18.73;9.02;;;;;;;-144.57;100.00;62443.72;5013630;28;20046;-60
2023/12/01 07:23:35;;;;;;;17.30;9.10;;;;;;;-144.57;100.00;62443.72;5012613;28;20130;-60
2023/12/01 07:26:00;;;;;;;18.35;8.52;;;;;;;-144.57;100.00;62443.72;5012546;28;20045;-60
2023/12/01 07:28:27;;;;;;;19.17;9.93;;;;;;;-144.57;100.00;62443.72;5013858;28;20076;-59
2023/12/01 07:30:53;;;;;;;18.13;9.30;;;;;;;-144.57;100.00;62443.72;5011974;28;20534;-59
2023/12/01 07:33:19;;;;;;;14.88;8.52;;;;;;;-144.57;100.00;62443.72;5010609;28;20081;-58
2023/12/01 07:35:44;;;;;;;16.92;9.18;;;;;;;-144.57;100.00;62443.72;5009848;28;20107;-60
2023/12/01 07:38:10;;;;;;;16.52;9.55;;;;;;;-144.57;100.00;62443.72;5010746;28;20124;-60
2023/12/01 07:40:36;;;;;;;16.15;8.43;;;;;;;-144.57;100.00;62443.72;4998064;28;20046;-62
2023/12/01 07:43:02;;;;;;;22.52;9.30;;;;;;;-144.57;100.00;62443.72;5009055;28;20122;-60
2023/12/01 07:45:28;;;;;;;19.98;9.43;;;;;;;-144.57;100.00;62443.72;5012812;28;20041;-62
2023/12/01 07:47:54;;;;;;;20.35;9.63;;;;;;;-144.57;100.00;62443.72;5012958;28;20638;-60
2023/12/01 07:50:21;;;;;;;16.65;9.27;;;;;;;-144.57;100.00;62443.72;5012836;28;20041;-61
2023/12/01 07:52:49;;;;;;;18.73;9.10;;;;;;;-144.57;100.00;62443.72;5013278;28;20054;-58
2023/12/01 07:55:16;;;;;;;19.60;8.93;;;;;;;-144.57;100.00;62443.72;5011609;28;20038;-59
2023/12/01 07:57:42;;;;;;;17.63;8.63;;;;;;;-144.57;100.00;62443.72;5013391;28;20042;-59
2023/12/01 08:00:14;;;;;;;17.48;9.25;;;;;;;-144.57;100.00;62443.72;5012246;28;20041;-58
2023/12/01 08:02:44;;;;;;;17.80;9.10;;;;;;;-144.57;100.00;62443.72;5004496;28;20039;-57
2023/12/01 08:05:13;;;;;;;18.33;8.68;;;;;;;-144.57;100.00;62443.72;5013068;28;20115;-58
2023/12/01 08:07:45;;;;;;;15.50;8.77;;;;;;;-144.57;100.00;62443.72;5012114;28;20077;-59
2023/12/01 08:10:20;;;;;;;18.90;8.85;;;;;;;-144.57;100.00;62443.72;5011069;28;20049;-61
2023/12/01 08:12:48;;;;;;;16.88;8.98;;;;;;;-144.57;100.00;62443.72;4995154;28;20064;-62
2023/12/01 08:15:16;;;;;;;20.38;8.95;;;;;;;-144.57;100.00;62443.72;5027896;28;20050;-59
2023/12/01 08:17:43;;;;;;;16.95;8.90;;;;;;;-144.57;100.00;62443.72;4995440;28;20041;-60
2023/12/01 08:20:13;;;;;;;17.60;8.70;;;;;;;-144.57;100.00;62443.72;5012285;28;20136;-58
2023/12/01 08:22:39;;;;;;;18.00;9.23;;;;;;;-144.57;100.00;62443.72;5012723;28;20312;-58
2023/12/01 08:25:06;;;;;;;15.57;8.30;;;;;;;-144.57;100.00;62443.72;5012278;28;20103;-59
2023/12/01 08:27:33;;;;;;;15.55;8.00;;;;;;;-144.57;100.00;62443.72;5012587;28;20404;-58
2023/12/01 08:29:59;;;;;;;20.17;9.82;;;;;;;-144.57;100.00;62443.72;5027881;28;20443;-59
2023/12/01 08:32:24;;;;;;;17.63;8.60;;;;;;;-144.57;100.00;62443.72;4994749;28;20054;-59
2023/12/01 08:34:51;;;;;;;16.52;9.70;;;;;;;-144.57;100.00;62443.72;5011476;28;20037;-61
2023/12/01 08:37:17;;;;;;;18.98;9.75;;;;;;;-144.57;100.00;62443.72;5010578;28;20095;-58
2023/12/01 08:39:44;;;;;;;17.60;9.75;;;;;;;-144.57;100.00;62443.72;5010674;28;20042;-57
2023/12/01 08:42:10;;;;;;;21.17;10.13;;;;;;;-144.57;100.00;62443.72;5012413;28;20057;-60
2023/12/01 08:44:36;;;;;;;20.33;10.38;;;;;;;-144.57;100.00;62443.72;5009652;28;20488;-60
2023/12/01 08:47:02;;;;;;;19.65;10.52;;;;;;;-144.57;100.00;62443.72;5012385;28;20505;-59
2023/12/01 08:49:29;;;;;;;20.73;10.48;;;;;;;-144.57;100.00;62443.72;5011885;28;20500;-60
2023/12/01 08:51:55;;;;;;;22.55;10.65;;;;;;;-144.57;100.00;62443.72;4991136;28;20046;-58
2023/12/01 08:54:24;;;;;;;20.42;10.30;;;;;;;-144.57;100.00;62443.72;4994494;28;20038;-61
2023/12/01 08:56:50;;;;;;;21.42;10.15;;;;;;;-144.57;100.00;62443.72;4994429;28;20069;-60
2023/12/01 08:59:17;;;;;;;20.52;11.00;;;;;;;-144.57;100.00;62443.72;5011898;28;20504;-59
2023/12/01 09:01:43;;;;;;;17.90;10.32;;;;;;;-144.57;100.00;62443.72;5010888;28;20448;-59
2023/12/01 09:04:09;;;;;;;19.33;10.13;;;;;;;-144.57;100.00;62443.72;5010952;28;20045;-59
2023/12/01 09:06:36;;;;;;;21.30;10.32;;;;;;;-144.57;100.00;62443.72;5010575;28;20498;-61
2023/12/01 09:09:02;;;;;;;22.08;10.20;;;;;;;-144.57;100.00;62443.72;5011515;28;20136;-60
2023/12/01 09:11:29;;;;;;;16.65;9.48;;;;;;;-144.57;100.00;62443.72;5010810;28;20136;-61
2023/12/01 09:13:55;;;;;;;17.40;9.68;;;;;;;-144.57;100.00;62443.72;5011931;28;20046;-60
2023/12/01 09:16:23;;;;;;;19.42;10.63;;;;;;;-144.57;100.00;62443.72;5010608;28;20049;-60
2023/12/01 09:18:50;;;;;;;19.50;9.60;;;;;;;-144.57;100.00;62443.72;5011511;28;20171;-61
2023/12/01 09:21:17;;;;;;;18.55;10.13;;;;;;;-144.57;100.00;62443.72;4990408;28;20117;-60
2023/12/01 09:23:44;;;;;;;18.33;10.00;;;;;;;-144.57;100.00;62443.72;4991912;28;20046;-59
2023/12/01 09:26:17;;;;;;;16.13;9.05;;;;;;;-144.57;100.00;62443.72;5009730;28;20038;-59
2023/12/01 09:28:43;;;;;;;19.52;9.50;;;;;;;-144.57;100.00;62443.72;5011815;28;20435;-58
2023/12/01 09:31:12;;;;;;;26.58;9.82;;;;;;;-144.57;100.00;62443.72;5010992;28;20050;-60
2023/12/01 09:33:38;;;;;;;17.20;9.98;;;;;;;-144.57;100.00;62443.72;5011791;28;20077;-61
2023/12/01 09:36:04;;;;;;;18.70;9.93;;;;;;;-144.57;100.00;62443.72;4990080;28;20042;-62
2023/12/01 09:38:31;;;;;;;19.77;10.30;;;;;;;-144.57;100.00;62443.72;5011181;28;20108;-60
2023/12/01 09:40:57;;;;;;;19.95;10.98;;;;;;;-144.57;100.00;62443.72;5009681;28;20037;-62
2023/12/01 09:43:23;;;;;;;17.35;9.93;;;;;;;-144.57;100.00;62443.72;5010178;28;20411;-59
2023/12/01 09:45:49;;;;;;;20.50;10.90;;;;;;;-144.57;100.00;62443.72;5011324;28;20046;-60
2023/12/01 09:48:18;;;;;;;18.67;10.57;;;;;;;-144.57;100.00;62443.72;5011401;28;20046;-61
2023/12/01 09:50:44;;;;;;;18.38;10.18;;;;;;;-144.57;100.00;62443.72;4993093;28;20420;-58
2023/12/01 09:53:11;;;;;;;17.60;9.95;;;;;;;-144.57;100.00;62443.72;5010609;28;20050;-62
2023/12/01 09:55:36;;;;;;;18.10;9.88;;;;;;;-144.57;100.00;62443.72;5010075;28;20038;-61
2023/12/01 09:58:03;;;;;;;19.42;9.73;;;;;;;-144.57;100.00;62443.72;5011332;28;20033;-60
2023/12/01 10:00:29;;;;;;;20.58;10.20;;;;;;;-144.57;100.00;62443.72;5010669;28;20096;-60
2023/12/01 10:02:56;;;;;;;19.23;10.27;;;;;;;-144.57;100.00;62443.72;5026322;28;20061;-61
2023/12/01 10:05:22;;;;;;;20.25;10.98;;;;;;;-144.57;100.00;62443.72;5009741;28;20503;-60
2023/12/01 10:07:49;;;;;;;20.25;10.25;;;;;;;-144.57;100.00;62443.72;5006183;28;20039;-61
2023/12/01 10:10:19;;;;;;;18.20;9.45;;;;;;;-144.57;100.00;62443.72;4993737;28;20048;-60
2023/12/01 10:12:59;;;;;;;20.63;10.13;;;;;;;-144.57;100.00;62443.72;5010919;28;20057;-61
2023/12/01 10:15:26;;;;;;;20.30;10.30;;;;;;;-144.57;100.00;62443.72;5007262;28;20046;-60
2023/12/01 10:18:07;;;;;;;19.58;10.20;;;;;;;-144.57;100.00;62443.72;4990841;28;20045;-59
2023/12/01 10:20:32;;;;;;;17.50;9.88;;;;;;;-144.57;100.00;62443.72;5008721;28;20050;-61
2023/12/01 10:22:58;;;;;;;19.42;9.50;;;;;;;-144.57;100.00;62443.72;5010311;28;20076;-60
2023/12/01 10:25:24;;;;;;;19.75;10.35;;;;;;;-144.57;100.00;62443.72;5011122;28;20052;-60
2023/12/01 10:27:56;;;;;;;20.85;10.60;;;;;;;-144.57;100.00;62443.72;5009927;28;20069;-59
2023/12/01 10:30:22;;;;;;;19.90;11.10;;;;;;;-144.57;100.00;62443.72;5010836;28;20045;-59
2023/12/01 10:32:48;;;;;;;20.60;10.40;;;;;;;-144.57;100.00;62443.72;5009337;28;20050;-60
2023/12/01 10:35:14;;;;;;;21.92;10.77;;;;;;;-144.57;100.00;62443.72;5008442;28;20038;-58
2023/12/01 10:37:41;;;;;;;20.75;10.57;;;;;;;-144.57;100.00;62443.72;4992141;28;20046;-60
2023/12/01 10:40:08;;;;;;;18.55;11.02;;;;;;;-144.57;100.00;62443.72;5008897;28;20413;-60
2023/12/01 10:42:34;;;;;;;19.88;10.80;;;;;;;-144.57;100.00;62443.72;5008906;28;20587;-60
2023/12/01 10:45:02;;;;;;;19.20;10.02;;;;;;;-144.57;100.00;62443.72;5010431;28;20046;-60
2023/12/01 10:47:31;;;;;;;20.92;11.32;;;;;;;-144.57;100.00;62443.72;5010794;28;20077;-57
2023/12/01 10:49:57;;;;;;;20.17;10.32;;;;;;;-144.57;100.00;62443.72;5009871;28;20461;-58
2023/12/01 10:52:24;;;;;;;20.05;10.60;;;;;;;-144.57;100.00;62443.72;4993193;28;20049;-59
2023/12/01 10:54:52;;;;;;;20.83;11.07;;;;;;;-144.57;100.00;62443.72;4959275;28;20065;-57
2023/12/01 10:57:28;;;;;;;20.60;11.10;;;;;;;-144.57;100.00;62443.72;5008971;28;20582;-60
2023/12/01 10:59:56;;;;;;;19.85;11.05;;;;;;;-144.57;100.00;62443.72;5009598;28;20555;-61
2023/12/01 11:02:23;;;;;;;21.63;11.80;;;;;;;-144.57;100.00;62443.72;5012451;28;20054;-61